METAR Data
IDs: Format: Raw Decoded Include TAF

Data at: 1327 UTC 19 Feb 2020

RODN 191256Z AUTO 06004KT 10SM BKN060 12/07 A3031 RMK AO2 SLP272 T01150072 FZRANO $